Time;durP1;ratioP1;P1;durP2;ratioP2;P2;SDS_P1;SDS_P2;PMS_P1;PMS_P2;Temp;Humidity;BMP_temperature;BMP_pressure;BME280_temperature;BME280_humidity;BME280_pressure;Samples;Min_cycle;Max_cycle;Signal;HPM_P1;HPM_P2
2022/04/15 00:00:56;;;;;;;0.60;0.10;;;15.00;1.00;;;;;;5059419;28;21079;-77
2022/04/15 00:03:30;;;;;;;0.60;0.10;;;15.00;1.00;;;;;;5058303;28;20485;-78
2022/04/15 00:05:58;;;;;;;0.60;0.10;;;14.90;1.00;;;;;;5063532;28;20558;-76
2022/04/15 00:08:26;;;;;;;0.60;0.10;;;14.90;1.00;;;;;;5065240;28;20473;-77
2022/04/15 00:10:54;;;;;;;0.60;0.10;;;15.00;1.00;;;;;;5046970;28;20467;-77
2022/04/15 00:13:29;;;;;;;0.60;0.10;;;15.00;1.00;;;;;;5041437;28;20821;-77
2022/04/15 00:15:57;;;;;;;3.43;0.50;;;15.00;1.00;;;;;;5061488;28;20540;-77
2022/04/15 00:18:26;;;;;;;0.60;0.10;;;15.00;1.00;;;;;;5065525;28;20466;-77
2022/04/15 00:20:54;;;;;;;0.60;0.10;;;15.00;1.00;;;;;;5066692;28;20462;-77
2022/04/15 00:23:22;;;;;;;0.60;0.10;;;15.00;1.00;;;;;;5057867;28;21113;-79
2022/04/15 00:25:50;;;;;;;0.60;0.10;;;15.00;1.00;;;;;;5066677;28;20444;-77
2022/04/15 00:28:19;;;;;;;0.60;0.10;;;15.00;1.00;;;;;;5075478;28;20439;-78
2022/04/15 00:30:48;;;;;;;0.60;0.10;;;14.90;1.00;;;;;;5076635;28;20472;-78
2022/04/15 00:33:17;;;;;;;0.60;0.10;;;14.90;1.00;;;;;;5077636;28;21138;-77
2022/04/15 00:35:44;;;;;;;0.60;0.10;;;14.90;1.00;;;;;;5077010;28;20453;-78
2022/04/15 00:38:12;;;;;;;0.60;0.10;;;14.80;1.00;;;;;;5074124;28;20576;-78
2022/04/15 00:40:40;;;;;;;0.60;0.10;;;14.80;1.00;;;;;;5076609;28;21133;-78
2022/04/15 00:43:08;;;;;;;0.60;0.10;;;14.70;1.00;;;;;;5076960;28;20430;-78
2022/04/15 00:45:36;;;;;;;0.60;0.20;;;14.70;1.00;;;;;;5076092;28;20466;-78
2022/04/15 00:48:07;;;;;;;0.60;0.10;;;14.70;1.00;;;;;;5075100;28;20453;-77
2022/04/15 00:50:36;;;;;;;0.60;0.10;;;14.70;1.00;;;;;;5075142;28;20531;-78
2022/04/15 00:53:09;;;;;;;0.60;0.10;;;14.60;1.00;;;;;;5075683;28;20458;-77
2022/04/15 00:55:38;;;;;;;0.60;0.10;;;14.50;1.00;;;;;;5073781;28;20449;-77
2022/04/15 00:58:07;;;;;;;0.60;0.20;;;14.50;1.00;;;;;;5074105;28;20451;-78
2022/04/15 01:00:37;;;;;;;0.60;0.10;;;14.50;1.00;;;;;;5075421;28;21042;-77
2022/04/15 01:03:07;;;;;;;0.60;0.10;;;14.40;1.00;;;;;;5075492;28;20449;-77
2022/04/15 01:05:36;;;;;;;3.27;0.83;;;14.40;1.00;;;;;;5073487;28;20963;-77
2022/04/15 01:08:08;;;;;;;0.80;0.73;;;14.30;1.00;;;;;;5075113;28;20450;-79
2022/04/15 01:10:37;;;;;;;0.60;0.10;;;14.30;1.00;;;;;;5074415;28;20491;-77
2022/04/15 01:13:07;;;;;;;0.60;0.10;;;14.40;1.00;;;;;;5064506;28;20443;-78
2022/04/15 01:15:51;;;;;;;0.60;0.10;;;14.40;1.00;;;;;;5033426;28;20459;-78
2022/04/15 01:18:21;;;;;;;0.60;0.10;;;14.30;1.00;;;;;;5032516;28;20447;-78
2022/04/15 01:20:49;;;;;;;0.60;0.10;;;14.30;1.00;;;;;;5033402;28;20470;-77
2022/04/15 01:23:19;;;;;;;0.60;0.10;;;14.20;1.00;;;;;;5033279;28;20443;-77
2022/04/15 01:25:47;;;;;;;0.60;0.10;;;14.20;1.00;;;;;;5045877;28;20479;-78
2022/04/15 01:28:17;;;;;;;0.60;0.10;;;14.20;1.00;;;;;;5072798;28;20465;-77
2022/04/15 01:30:45;;;;;;;0.60;0.10;;;14.20;1.00;;;;;;5073991;28;20641;-78
2022/04/15 01:33:16;;;;;;;0.60;0.10;;;14.10;1.00;;;;;;5079144;28;20506;-77
2022/04/15 01:35:49;;;;;;;0.60;0.10;;;14.10;1.00;;;;;;5083026;28;20506;-77
2022/04/15 01:38:19;;;;;;;0.60;0.10;;;14.00;1.00;;;;;;5077035;28;20663;-78
2022/04/15 01:40:47;;;;;;;0.60;0.10;;;13.90;1.00;;;;;;5074660;28;20470;-78
2022/04/15 01:43:14;;;;;;;0.60;0.20;;;13.90;1.00;;;;;;5074477;28;20532;-77
2022/04/15 01:45:42;;;;;;;0.70;0.40;;;13.80;1.00;;;;;;5073164;28;20749;-78
2022/04/15 01:48:10;;;;;;;0.60;0.10;;;13.70;1.00;;;;;;5073111;28;20452;-77
2022/04/15 01:50:39;;;;;;;0.60;0.10;;;13.70;1.00;;;;;;5073950;28;20503;-78
2022/04/15 01:53:07;;;;;;;0.60;0.10;;;13.60;1.00;;;;;;5067667;28;20465;-77
2022/04/15 01:55:37;;;;;;;0.60;0.10;;;13.60;1.00;;;;;;5056001;28;20444;-78
2022/04/15 01:58:05;;;;;;;0.60;0.10;;;13.50;1.00;;;;;;5057016;28;20447;-77
2022/04/15 02:00:33;;;;;;;0.60;0.10;;;13.50;1.00;;;;;;5056736;28;20545;-77
2022/04/15 02:03:01;;;;;;;0.60;0.10;;;13.40;1.00;;;;;;5058262;28;20454;-76
2022/04/15 02:05:30;;;;;;;0.60;0.10;;;13.50;1.00;;;;;;5057086;28;20457;-79
2022/04/15 02:07:58;;;;;;;0.60;0.10;;;13.40;1.00;;;;;;5057155;28;20454;-77
2022/04/15 02:10:26;;;;;;;0.60;0.10;;;13.40;1.00;;;;;;5054430;28;20542;-78
2022/04/15 02:12:55;;;;;;;0.60;0.10;;;13.40;1.00;;;;;;5052819;28;20446;-77
2022/04/15 02:15:24;;;;;;;0.60;0.10;;;13.30;1.00;;;;;;5048945;28;20482;-77
2022/04/15 02:17:54;;;;;;;0.60;0.10;;;13.30;1.00;;;;;;5061406;28;20439;-77
2022/04/15 02:20:21;;;;;;;0.60;0.10;;;13.30;1.00;;;;;;5053451;28;20489;-78
2022/04/15 02:22:51;;;;;;;0.60;0.10;;;13.30;1.00;;;;;;5052725;28;20450;-78
2022/04/15 02:25:19;;;;;;;0.60;0.20;;;13.20;1.00;;;;;;5054719;28;20453;-77
2022/04/15 02:27:47;;;;;;;0.60;0.10;;;13.20;1.00;;;;;;5072361;28;20441;-77
2022/04/15 02:30:16;;;;;;;0.60;0.10;;;13.10;1.00;;;;;;5073018;28;20463;-79
2022/04/15 02:32:44;;;;;;;0.60;0.10;;;13.10;1.00;;;;;;5074218;28;20481;-78
2022/04/15 02:35:12;;;;;;;0.60;0.10;;;13.10;1.00;;;;;;5076856;28;20445;-78
2022/04/15 02:37:40;;;;;;;0.60;0.10;;;13.00;1.00;;;;;;5076156;28;20455;-78
2022/04/15 02:40:09;;;;;;;0.60;0.10;;;13.00;1.00;;;;;;5076999;28;20487;-76
2022/04/15 02:42:37;;;;;;;0.60;0.10;;;12.90;1.00;;;;;;5075659;28;20819;-76
2022/04/15 02:45:07;;;;;;;0.60;0.10;;;12.90;1.00;;;;;;5075624;28;20442;-77
2022/04/15 02:47:37;;;;;;;0.60;0.10;;;12.90;1.00;;;;;;5075309;28;20445;-78
2022/04/15 02:50:05;;;;;;;0.60;0.10;;;12.80;1.00;;;;;;5076307;28;20485;-77
2022/04/15 02:52:34;;;;;;;0.60;0.10;;;12.80;1.00;;;;;;5075478;28;20447;-77
2022/04/15 02:55:02;;;;;;;0.60;0.10;;;12.80;1.00;;;;;;5056984;28;20451;-77
2022/04/15 02:57:30;;;;;;;0.60;0.10;;;12.70;1.00;;;;;;5056296;28;20976;-78
2022/04/15 02:59:58;;;;;;;0.60;0.10;;;12.70;1.00;;;;;;5069397;22;20502;-75
2022/04/15 03:02:26;;;;;;;0.60;0.10;;;12.70;1.00;;;;;;5015660;28;20954;-76
2022/04/15 03:04:56;;;;;;;0.60;0.10;;;12.70;1.00;;;;;;5015880;28;20942;-77
2022/04/15 03:07:23;;;;;;;0.60;0.10;;;12.60;1.00;;;;;;5013649;28;20440;-76
2022/04/15 03:09:51;;;;;;;0.60;0.10;;;12.60;1.00;;;;;;5014271;28;20460;-76
2022/04/15 03:12:19;;;;;;;0.60;0.10;;;12.60;1.00;;;;;;5014564;28;20444;-76
2022/04/15 03:14:50;;;;;;;0.60;0.10;;;12.60;1.00;;;;;;5013117;28;20448;-76
2022/04/15 03:17:17;;;;;;;0.60;0.10;;;12.60;1.00;;;;;;5015036;28;20440;-75
2022/04/15 03:19:45;;;;;;;0.60;0.10;;;12.60;1.00;;;;;;5014013;28;20487;-76
2022/04/15 03:22:17;;;;;;;0.60;0.10;;;12.60;1.00;;;;;;5013832;28;20555;-75
2022/04/15 03:24:45;;;;;;;0.60;0.10;;;12.60;1.00;;;;;;5013797;28;20457;-75
2022/04/15 03:27:13;;;;;;;0.60;0.10;;;12.60;1.00;;;;;;5031539;28;20459;-76
2022/04/15 03:29:40;;;;;;;0.60;0.10;;;12.50;1.00;;;;;;5034135;28;20912;-76
2022/04/15 03:32:09;;;;;;;0.60;0.10;;;12.50;1.00;;;;;;5034229;28;20440;-75
2022/04/15 03:34:37;;;;;;;0.60;0.10;;;12.40;1.00;;;;;;5033491;28;20528;-76
2022/04/15 03:37:05;;;;;;;0.60;0.10;;;12.40;1.00;;;;;;5034508;28;20450;-76
2022/04/15 03:39:35;;;;;;;0.60;0.10;;;;;;;;;;5036628;28;21008;-76
2022/04/15 03:42:04;;;;;;;0.60;0.10;;;12.40;1.00;;;;;;5036112;28;21002;-76
2022/04/15 03:44:31;;;;;;;0.60;0.10;;;12.30;1.00;;;;;;5033567;28;20467;-76
2022/04/15 03:46:59;;;;;;;0.60;0.10;;;12.30;1.00;;;;;;5033348;28;20487;-76
2022/04/15 03:49:27;;;;;;;0.60;0.10;;;12.30;1.00;;;;;;5033479;28;20451;-76
2022/04/15 03:51:56;;;;;;;0.60;0.10;;;12.30;1.00;;;;;;5034697;28;20809;-76
2022/04/15 03:54:24;;;;;;;0.60;0.10;;;12.30;1.00;;;;;;5020521;28;20462;-76
2022/04/15 03:56:53;;;;;;;0.60;0.10;;;12.40;1.00;;;;;;5027968;28;20445;-75
2022/04/15 03:59:21;;;;;;;0.60;0.10;;;12.40;1.00;;;;;;5022225;28;20523;-76
2022/04/15 04:01:49;;;;;;;0.60;0.10;;;12.30;1.00;;;;;;4998551;28;20492;-76
2022/04/15 04:04:17;;;;;;;0.60;0.10;;;12.30;1.00;;;;;;5015329;28;20670;-76
2022/04/15 04:06:45;;;;;;;0.60;0.10;;;12.30;1.00;;;;;;5014632;28;20456;-77
2022/04/15 04:09:13;;;;;;;0.60;0.10;;;12.30;1.00;;;;;;5014699;28;20460;-77
2022/04/15 04:11:41;;;;;;;0.60;0.10;;;12.30;1.00;;;;;;5018164;28;20531;-77
2022/04/15 04:14:10;;;;;;;0.60;0.10;;;12.30;1.00;;;;;;5019103;28;20447;-76
2022/04/15 04:16:42;;;;;;;0.60;0.10;;;12.20;1.00;;;;;;5015382;28;20544;-77
2022/04/15 04:19:10;;;;;;;0.60;0.10;;;12.20;1.00;;;;;;5016716;28;20451;-77
2022/04/15 04:21:38;;;;;;;0.60;0.10;;;12.20;1.00;;;;;;5016053;28;20487;-76
2022/04/15 04:24:06;;;;;;;0.60;0.10;;;12.20;1.00;;;;;;5014740;28;20460;-77
2022/04/15 04:26:34;;;;;;;0.70;0.43;;;12.20;1.00;;;;;;5008929;28;20828;-77
2022/04/15 04:29:02;;;;;;;0.60;0.10;;;12.10;1.00;;;;;;4994659;28;20561;-77
2022/04/15 04:31:31;;;;;;;0.60;0.10;;;12.10;1.00;;;;;;4993184;28;20484;-77
2022/04/15 04:33:59;;;;;;;0.60;0.10;;;12.10;1.00;;;;;;5000105;28;20961;-76
2022/04/15 04:36:28;;;;;;;0.60;0.10;;;12.10;1.00;;;;;;4984118;28;20452;-77
2022/04/15 04:38:55;;;;;;;0.60;0.10;;;12.00;1.00;;;;;;5008814;28;20813;-76
2022/04/15 04:41:23;;;;;;;0.60;0.10;;;12.10;1.00;;;;;;5014578;28;20492;-76
2022/04/15 04:43:51;;;;;;;0.60;0.10;;;12.10;1.00;;;;;;5007032;28;20452;-77
2022/04/15 04:46:19;;;;;;;0.60;0.10;;;12.10;1.00;;;;;;4995894;28;20433;-77
2022/04/15 04:48:53;;;;;;;0.60;0.10;;;12.10;1.00;;;;;;4995784;28;20464;-77
2022/04/15 04:51:21;;;;;;;0.60;0.10;;;12.10;1.00;;;;;;4995970;28;20605;-77
2022/04/15 04:53:49;;;;;;;0.60;0.10;;;12.10;1.00;;;;;;4996240;28;20907;-76
2022/04/15 04:56:17;;;;;;;0.60;0.10;;;12.10;1.00;;;;;;4996335;28;20441;-75
2022/04/15 04:58:45;;;;;;;0.60;0.10;;;12.10;1.00;;;;;;4995564;28;20837;-75
2022/04/15 05:01:13;;;;;;;0.60;0.10;;;;;;;;;;4995713;28;20499;-76
2022/04/15 05:03:41;;;;;;;0.60;0.10;;;12.10;1.00;;;;;;4997711;28;20454;-76
2022/04/15 05:06:10;;;;;;;0.60;0.10;;;12.10;1.00;;;;;;4998379;28;20441;-76
2022/04/15 05:08:38;;;;;;;0.60;0.10;;;12.10;1.00;;;;;;4997395;28;20486;-76
2022/04/15 05:11:06;;;;;;;0.60;0.10;;;12.20;1.00;;;;;;4996935;28;20458;-76
2022/04/15 05:13:34;;;;;;;0.60;0.10;;;12.20;1.00;;;;;;4998208;28;20532;-75
2022/04/15 05:16:02;;;;;;;0.60;0.10;;;;;;;;;;4996207;28;20480;-75
2022/04/15 05:18:30;;;;;;;0.60;0.30;;;12.30;1.00;;;;;;4995267;28;20448;-76
2022/04/15 05:20:58;;;;;;;0.60;0.10;;;12.30;1.00;;;;;;4996489;28;20481;-76
2022/04/15 05:23:28;;;;;;;0.60;0.10;;;12.30;1.00;;;;;;4995708;28;20959;-76
2022/04/15 05:25:56;;;;;;;0.60;0.10;;;12.30;1.00;;;;;;4988304;28;20445;-76
2022/04/15 05:28:24;;;;;;;0.60;0.10;;;12.30;1.00;;;;;;4977732;28;20442;-76
2022/04/15 05:30:52;;;;;;;0.60;0.10;;;12.40;1.00;;;;;;4980010;28;20556;-76
2022/04/15 05:33:25;;;;;;;0.60;0.10;;;12.40;1.00;;;;;;4977720;28;20434;-75
2022/04/15 05:35:53;;;;;;;0.60;0.10;;;12.40;1.00;;;;;;4996029;28;20441;-75
2022/04/15 05:38:20;;;;;;;0.60;0.10;;;12.50;1.00;;;;;;4994615;28;20471;-75
2022/04/15 05:40:50;;;;;;;0.60;0.10;;;12.60;1.00;;;;;;4995520;28;20485;-76
2022/04/15 05:43:17;;;;;;;0.60;0.10;;;12.60;1.00;;;;;;4994808;28;20445;-76
2022/04/15 05:45:45;;;;;;;0.60;0.10;;;12.60;1.00;;;;;;4995552;28;20465;-76
2022/04/15 05:48:14;;;;;;;0.60;0.10;;;12.70;1.00;;;;;;4994856;28;20446;-76
2022/04/15 05:50:42;;;;;;;0.60;0.10;;;12.70;1.00;;;;;;4995758;28;20580;-76
2022/04/15 05:53:13;;;;;;;0.60;0.10;;;12.70;1.00;;;;;;4996255;28;20460;-75
2022/04/15 05:55:41;;;;;;;0.60;0.10;;;12.80;1.00;;;;;;4996380;28;20451;-76
2022/04/15 05:58:10;;;;;;;0.60;0.10;;;12.90;1.00;;;;;;4996271;28;20449;-75
2022/04/15 06:00:38;;;;;;;0.60;0.10;;;13.00;1.00;;;;;;5007249;28;20477;-76
2022/04/15 06:03:07;;;;;;;0.60;0.10;;;13.00;1.00;;;;;;5015343;28;20461;-76
2022/04/15 06:05:36;;;;;;;0.60;0.10;;;13.10;1.00;;;;;;5012808;28;20891;-74
2022/04/15 06:08:05;;;;;;;0.60;0.10;;;13.20;1.00;;;;;;5016970;28;20881;-76
2022/04/15 06:10:33;;;;;;;0.60;0.10;;;13.20;1.00;;;;;;5019451;28;20472;-76
2022/04/15 06:13:03;;;;;;;0.60;0.10;;;13.30;1.00;;;;;;5019740;28;20782;-76
2022/04/15 06:15:34;;;;;;;0.60;0.10;;;13.40;1.00;;;;;;5018328;28;20467;-75
2022/04/15 06:18:03;;;;;;;0.60;0.10;;;13.60;1.00;;;;;;5018556;28;20452;-75
2022/04/15 06:20:31;;;;;;;0.60;0.13;;;13.60;1.00;;;;;;5019409;28;20472;-76
2022/04/15 06:23:02;;;;;;;0.60;0.10;;;;;;;;;;5018053;28;21011;-77
2022/04/15 06:25:31;;;;;;;0.60;0.10;;;13.70;1.00;;;;;;5016593;28;20869;-76
2022/04/15 06:27:58;;;;;;;0.60;0.10;;;13.80;1.00;;;;;;5017088;28;20552;-76
2022/04/15 06:30:27;;;;;;;0.60;0.10;;;13.90;1.00;;;;;;5018574;28;20841;-77
2022/04/15 06:32:56;;;;;;;0.60;0.10;;;14.00;1.00;;;;;;5020264;28;20467;-76
2022/04/15 06:35:24;;;;;;;0.60;0.10;;;14.00;1.00;;;;;;5019544;28;20822;-75
2022/04/15 06:38:00;;;;;;;0.60;0.10;;;14.10;1.00;;;;;;5019769;28;20526;-76
2022/04/15 06:40:29;;;;;;;0.60;0.10;;;14.20;1.00;;;;;;5019622;28;20499;-76
2022/04/15 06:42:57;;;;;;;0.60;0.10;;;14.30;1.00;;;;;;5019774;28;20472;-76
2022/04/15 06:45:25;;;;;;;0.60;0.10;;;14.30;1.00;;;;;;5015292;28;20456;-76
2022/04/15 06:47:53;;;;;;;0.60;0.10;;;14.40;1.00;;;;;;5017251;28;20515;-76
2022/04/15 06:50:22;;;;;;;0.60;0.10;;;14.40;1.00;;;;;;5017991;28;20460;-75
2022/04/15 06:52:50;;;;;;;0.60;0.10;;;14.40;1.00;;;;;;5017679;28;20450;-77
2022/04/15 06:55:19;;;;;;;0.60;0.10;;;14.50;1.00;;;;;;5017957;28;20532;-76
2022/04/15 06:57:47;;;;;;;0.60;0.10;;;;;;;;;;5016368;28;20444;-75
2022/04/15 07:00:16;;;;;;;0.60;0.10;;;14.60;1.00;;;;;;5010540;28;20483;-76
2022/04/15 07:02:43;;;;;;;0.97;0.30;;;14.60;1.00;;;;;;4997293;28;20996;-77
2022/04/15 07:05:12;;;;;;;0.60;0.10;;;14.70;1.00;;;;;;4998372;28;20449;-76
2022/04/15 07:07:41;;;;;;;0.60;0.10;;;14.70;1.00;;;;;;4997777;28;20517;-76
2022/04/15 07:10:11;;;;;;;0.60;0.10;;;14.80;1.00;;;;;;4998024;28;20473;-76
2022/04/15 07:12:39;;;;;;;0.60;0.10;;;14.80;1.00;;;;;;4996573;28;20549;-75
2022/04/15 07:15:09;;;;;;;1.07;0.40;;;14.80;1.00;;;;;;4998357;28;20645;-77
2022/04/15 07:17:37;;;;;;;0.60;0.10;;;14.90;1.00;;;;;;5000374;28;20458;-76
2022/04/15 07:20:06;;;;;;;0.60;0.10;;;15.00;1.00;;;;;;5000609;28;20565;-76
2022/04/15 07:22:34;;;;;;;0.60;0.10;;;15.10;1.00;;;;;;5002025;28;20493;-76
2022/04/15 07:25:04;;;;;;;0.60;0.10;;;15.10;1.00;;;;;;5001742;28;20457;-77
2022/04/15 07:27:32;;;;;;;0.60;0.10;;;15.10;1.00;;;;;;5022506;28;20832;-76
2022/04/15 07:30:00;;;;;;;0.60;0.43;;;15.30;1.00;;;;;;5022921;28;20480;-76
2022/04/15 07:32:29;;;;;;;0.60;0.10;;;15.40;1.00;;;;;;5023240;28;20460;-76
2022/04/15 07:34:56;;;;;;;0.60;0.10;;;15.40;1.00;;;;;;5017599;28;20813;-77
2022/04/15 07:37:25;;;;;;;0.60;0.10;;;15.50;1.00;;;;;;5001342;28;20455;-76
2022/04/15 07:39:52;;;;;;;0.60;0.10;;;15.60;1.00;;;;;;4994595;28;21003;-76
2022/04/15 07:42:22;;;;;;;0.80;0.40;;;15.70;1.00;;;;;;4997179;28;20512;-75
2022/04/15 07:44:50;;;;;;;0.60;0.10;;;15.60;1.00;;;;;;4995131;28;20453;-76
2022/04/15 07:47:18;;;;;;;0.60;0.10;;;15.70;99.90;;;;;;4995113;28;20457;-76
2022/04/15 07:50:05;;;;;;;0.60;0.10;;;15.70;99.90;;;;;;4996004;28;20467;-76
2022/04/15 07:52:35;;;;;;;0.60;0.20;;;15.80;99.90;;;;;;4996352;28;20745;-76
2022/04/15 07:55:03;;;;;;;1.37;1.27;;;15.80;99.90;;;;;;4996013;28;20438;-76
2022/04/15 07:57:34;;;;;;;0.60;0.10;;;15.90;99.90;;;;;;4993906;28;20447;-76
2022/04/15 08:00:01;;;;;;;0.60;0.10;;;15.90;99.90;;;;;;4983575;28;20492;-76
2022/04/15 08:02:29;;;;;;;0.60;0.10;;;15.90;99.90;;;;;;4980369;28;20489;-75
2022/04/15 08:04:57;;;;;;;0.60;0.10;;;16.00;99.90;;;;;;4991697;28;20476;-76
2022/04/15 08:07:25;;;;;;;0.60;0.20;;;16.10;99.90;;;;;;4995151;28;20468;-76
2022/04/15 08:09:53;;;;;;;0.60;0.10;;;16.20;99.90;;;;;;4994899;28;20472;-76
2022/04/15 08:12:21;;;;;;;1.10;1.00;;;16.20;99.90;;;;;;4994797;28;20957;-75
2022/04/15 08:14:51;;;;;;;0.60;0.20;;;16.20;99.90;;;;;;4996584;28;20822;-77
2022/04/15 08:17:19;;;;;;;0.60;0.10;;;16.20;99.90;;;;;;5004132;28;21008;-76
2022/04/15 08:19:47;;;;;;;0.60;0.10;;;16.30;99.90;;;;;;5002914;28;21080;-76
2022/04/15 08:22:15;;;;;;;0.60;0.10;;;16.30;99.90;;;;;;5014187;28;20482;-76
2022/04/15 08:24:45;;;;;;;0.60;0.10;;;16.30;99.90;;;;;;5011777;28;20992;-76
2022/04/15 08:27:13;;;;;;;0.60;0.20;;;16.40;99.90;;;;;;5013185;28;20458;-76
2022/04/15 08:29:42;;;;;;;0.60;0.10;;;16.50;99.90;;;;;;5007245;28;20998;-75
2022/04/15 08:32:12;;;;;;;0.60;0.10;;;;;;;;;;4996641;28;20535;-76
2022/04/15 08:34:40;;;;;;;0.60;0.20;;;16.50;99.90;;;;;;4993946;28;20449;-76
2022/04/15 08:37:09;;;;;;;0.60;0.10;;;16.60;99.90;;;;;;4993873;28;20560;-77
2022/04/15 08:39:37;;;;;;;0.60;0.20;;;16.50;99.90;;;;;;4993148;28;20477;-71
2022/04/15 08:42:08;;;;;;;0.60;0.10;;;16.60;99.90;;;;;;4992998;28;20450;-70
2022/04/15 08:44:36;;;;;;;0.60;0.10;;;16.60;99.90;;;;;;4994743;28;20517;-70
2022/04/15 08:47:05;;;;;;;0.60;0.10;;;16.70;99.90;;;;;;4993740;28;20470;-71
2022/04/15 08:49:35;;;;;;;0.60;0.20;;;16.90;99.90;;;;;;4995550;28;20452;-71
2022/04/15 08:52:05;;;;;;;0.60;0.10;;;16.90;99.90;;;;;;4993052;28;20452;-70
2022/04/15 08:54:33;;;;;;;0.70;0.30;;;17.00;99.90;;;;;;4996391;28;20452;-71
2022/04/15 08:57:01;;;;;;;0.60;0.20;;;17.20;99.90;;;;;;4994332;28;20807;-72
2022/04/15 08:59:29;;;;;;;0.60;0.10;;;17.20;99.90;;;;;;4995322;28;20450;-71
2022/04/15 09:01:57;;;;;;;0.70;0.53;;;18.20;99.90;;;;;;5013614;28;20442;-73
2022/04/15 09:04:25;;;;;;;0.60;0.20;;;17.10;99.90;;;;;;5014257;28;20481;-73
2022/04/15 09:06:59;;;;;;;0.60;0.10;;;17.00;99.90;;;;;;5018932;28;20549;-74
2022/04/15 09:09:29;;;;;;;0.60;0.10;;;17.40;99.90;;;;;;5017257;28;20455;-72
2022/04/15 09:11:59;;;;;;;0.97;0.73;;;17.40;99.90;;;;;;5014605;28;20456;-72
2022/04/15 09:14:27;;;;;;;0.60;0.10;;;17.50;99.90;;;;;;5012295;28;20447;-71
2022/04/15 09:16:55;;;;;;;0.60;0.10;;;17.40;99.90;;;;;;5012859;28;20454;-72
2022/04/15 09:19:23;;;;;;;4.87;0.40;;;17.60;99.90;;;;;;5012914;28;20456;-75
2022/04/15 09:21:52;;;;;;;0.60;0.10;;;17.60;99.90;;;;;;5012840;28;20932;-75
2022/04/15 09:24:28;;;;;;;0.60;0.10;;;17.60;99.90;;;;;;5012819;28;20458;-73
2022/04/15 09:26:56;;;;;;;0.60;0.10;;;18.70;99.90;;;;;;5027933;28;20197;-72
2022/04/15 09:29:25;;;;;;;0.70;0.30;;;17.80;99.90;;;;;;5033270;28;20467;-72
2022/04/15 09:31:56;;;;;;;0.60;0.10;;;17.80;99.90;;;;;;5034417;28;20453;-75
2022/04/15 09:34:24;;;;;;;0.60;0.10;;;;;;;;;;5033292;28;20809;-76
2022/04/15 09:36:52;;;;;;;0.60;0.13;;;18.00;99.90;;;;;;5034371;28;20955;-74
2022/04/15 09:39:20;;;;;;;1.70;0.87;;;18.10;99.90;;;;;;5033677;28;20449;-74
2022/04/15 09:41:55;;;;;;;0.60;0.20;;;18.10;99.90;;;;;;5026661;28;20456;-76
2022/04/15 09:44:31;;;;;;;0.60;0.30;;;18.20;99.90;;;;;;5012193;28;20484;-77
2022/04/15 09:47:04;;;;;;;1.83;0.80;;;18.20;99.90;;;;;;5007060;28;20970;-77
2022/04/15 09:49:34;;;;;;;0.60;0.20;;;18.20;99.90;;;;;;5025259;28;20443;-77
2022/04/15 09:52:03;;;;;;;1.47;0.30;;;18.20;99.90;;;;;;5036315;28;20454;-76
2022/04/15 09:54:34;;;;;;;0.60;0.20;;;18.20;99.90;;;;;;5018230;28;20453;-77
2022/04/15 09:57:05;;;;;;;0.60;0.10;;;18.50;99.90;;;;;;5016130;28;20438;-76
2022/04/15 09:59:34;;;;;;;0.60;0.10;;;18.70;99.90;;;;;;5017076;28;20442;-77
2022/04/15 10:02:03;;;;;;;0.60;0.10;;;18.70;99.90;;;;;;5014735;28;20442;-75
2022/04/15 10:04:32;;;;;;;0.60;0.10;;;18.70;99.90;;;;;;5015402;28;20916;-75
2022/04/15 10:07:05;;;;;;;0.60;0.20;;;18.90;99.90;;;;;;5013756;28;20443;-76
2022/04/15 10:09:38;;;;;;;0.60;0.20;;;18.90;99.90;;;;;;5009084;28;20548;-76
2022/04/15 10:12:09;;;;;;;0.60;0.10;;;18.90;99.90;;;;;;5021099;28;20449;-78
2022/04/15 10:14:38;;;;;;;0.60;0.40;;;19.10;99.90;;;;;;5015866;28;20514;-78
2022/04/15 10:17:07;;;;;;;0.60;0.10;;;19.20;99.90;;;;;;5022204;28;20547;-77
2022/04/15 10:19:36;;;;;;;0.60;0.10;;;19.30;99.90;;;;;;5024478;28;20505;-76
2022/04/15 10:22:05;;;;;;;0.60;0.20;;;19.40;99.90;;;;;;5012233;28;20457;-75
2022/04/15 10:24:33;;;;;;;0.60;0.10;;;19.40;99.90;;;;;;5004698;28;20490;-76
2022/04/15 10:27:01;;;;;;;0.60;0.20;;;19.10;99.90;;;;;;5013397;28;20445;-77
2022/04/15 10:29:31;;;;;;;0.60;0.30;;;19.10;99.90;;;;;;5026002;28;20820;-76
2022/04/15 10:32:12;;;;;;;0.60;0.10;;;19.10;99.90;;;;;;5013083;28;20476;-76
2022/04/15 10:34:46;;;;;;;0.80;0.47;;;19.40;99.90;;;;;;5009824;28;20452;-76
2022/04/15 10:37:15;;;;;;;0.80;0.40;;;19.40;99.90;;;;;;5005346;28;20490;-75
2022/04/15 10:39:48;;;;;;;0.60;0.20;;;19.20;99.90;;;;;;5007279;28;20458;-74
2022/04/15 10:42:19;;;;;;;0.60;0.10;;;19.10;99.90;;;;;;5029429;28;20202;-76
2022/04/15 10:44:49;;;;;;;0.60;0.10;;;19.00;99.90;;;;;;5022500;28;20599;-76
2022/04/15 10:47:29;;;;;;;0.60;0.10;;;18.90;99.90;;;;;;5009159;28;20827;-74
2022/04/15 10:50:02;;;;;;;10.90;0.60;;;18.90;99.90;;;;;;5010840;28;20983;-75
2022/04/15 10:52:34;;;;;;;0.60;0.20;;;18.90;99.90;;;;;;5022322;28;20861;-77
2022/04/15 10:55:04;;;;;;;0.60;0.10;;;19.00;99.90;;;;;;5022333;28;20449;-75
2022/04/15 10:57:33;;;;;;;2.73;1.80;;;19.10;99.90;;;;;;5018627;28;20445;-77
2022/04/15 11:02:58;;;;;;;0.60;0.10;;;19.40;99.90;;;;;;5036562;28;20817;-77
2022/04/15 11:05:35;;;;;;;0.60;0.10;;;19.50;99.90;;;;;;5032159;28;20481;-76
2022/04/15 11:08:07;;;;;;;0.60;0.13;;;19.50;99.90;;;;;;5030403;28;20463;-70
2022/04/15 11:10:58;;;;;;;0.60;0.10;;;19.60;99.90;;;;;;5018246;28;20495;-77
2022/04/15 11:14:03;;;;;;;0.60;0.10;;;19.50;99.90;;;;;;5025603;28;20436;-75
2022/04/15 11:16:48;;;;;;;0.60;0.20;;;19.50;99.90;;;;;;5012301;28;20440;-77
2022/04/15 11:19:23;;;;;;;0.60;0.10;;;19.50;99.90;;;;;;5036103;28;20448;-76
2022/04/15 11:21:53;;;;;;;0.80;0.47;;;19.60;99.90;;;;;;5034983;28;20524;-76
2022/04/15 11:24:23;;;;;;;1.80;1.57;;;19.40;99.90;;;;;;5034408;28;21098;-77
2022/04/15 11:26:58;;;;;;;0.60;0.20;;;19.30;99.90;;;;;;5015469;28;20549;-76
2022/04/15 11:29:30;;;;;;;0.60;0.10;;;19.10;99.90;;;;;;5033081;28;20497;-76
2022/04/15 11:32:05;;;;;;;0.60;0.20;;;19.20;99.90;;;;;;5027165;28;20921;-74
2022/04/15 11:34:34;;;;;;;0.60;0.10;;;19.30;99.90;;;;;;5015821;28;20453;-76
2022/04/15 11:37:03;;;;;;;0.60;0.20;;;18.40;99.90;;;;;;5015357;28;20449;-76
2022/04/15 11:39:35;;;;;;;0.70;0.20;;;19.40;99.90;;;;;;5016976;28;20454;-76
2022/04/15 11:42:10;;;;;;;0.60;0.10;;;19.40;99.90;;;;;;5015698;28;20512;-77
2022/04/15 11:44:44;;;;;;;0.60;0.10;;;;;;;;;;5015065;28;20493;-77
2022/04/15 11:47:26;;;;;;;0.60;0.10;;;19.70;99.90;;;;;;5025019;28;20470;-77
2022/04/15 11:49:54;;;;;;;0.60;0.20;;;20.10;99.90;;;;;;4995541;28;20471;-77
2022/04/15 11:52:25;;;;;;;0.60;0.10;;;20.00;99.90;;;;;;4997247;28;20543;-76
2022/04/15 11:54:54;;;;;;;0.67;0.30;;;;;;;;;;5015343;28;20458;-76
2022/04/15 11:57:22;;;;;;;0.60;0.10;;;19.90;99.90;;;;;;5014351;28;20445;-77
2022/04/15 11:59:51;;;;;;;0.60;0.10;;;19.80;99.90;;;;;;5017281;28;20581;-76
2022/04/15 12:02:23;;;;;;;0.60;0.20;;;19.90;99.90;;;;;;5021680;28;20440;-76
2022/04/15 12:04:53;;;;;;;0.60;0.10;;;19.90;99.90;;;;;;4994763;28;20525;-76
2022/04/15 12:07:23;;;;;;;0.60;0.20;;;20.00;99.90;;;;;;5001175;28;20566;-75
2022/04/15 12:09:53;;;;;;;0.70;0.33;;;20.00;99.90;;;;;;5013635;28;21025;-76
2022/04/15 12:12:23;;;;;;;0.70;0.20;;;20.10;99.90;;;;;;4994917;28;20462;-77
2022/04/15 12:14:53;;;;;;;0.60;0.20;;;20.20;99.90;;;;;;4995175;28;20530;-73
2022/04/15 12:17:24;;;;;;;0.70;0.23;;;20.40;99.90;;;;;;4995560;28;20819;-77
2022/04/15 12:19:52;;;;;;;0.60;0.20;;;20.30;99.90;;;;;;4996086;28;20463;-76
2022/04/15 12:22:23;;;;;;;0.70;0.50;;;20.30;99.90;;;;;;4995765;28;20448;-75
2022/04/15 12:24:51;;;;;;;0.60;0.10;;;20.20;99.90;;;;;;5000689;28;20568;-76
2022/04/15 12:27:19;;;;;;;0.60;0.20;;;20.10;99.90;;;;;;5021589;28;20468;-76
2022/04/15 12:29:51;;;;;;;0.70;0.10;;;20.20;99.90;;;;;;5029318;28;20497;-77
2022/04/15 12:32:25;;;;;;;0.70;0.20;;;20.30;99.90;;;;;;5016674;28;20465;-78
2022/04/15 12:35:09;;;;;;;31.07;2.33;;;20.20;99.90;;;;;;5022873;28;20474;-77
2022/04/15 12:37:41;;;;;;;0.60;0.17;;;20.10;99.90;;;;;;5028602;28;20509;-77
2022/04/15 12:40:10;;;;;;;0.60;0.10;;;20.40;99.90;;;;;;5016785;28;20510;-75
2022/04/15 12:42:40;;;;;;;0.80;0.40;;;20.50;99.90;;;;;;5024906;28;20453;-74
2022/04/15 12:45:11;;;;;;;0.70;0.20;;;20.70;99.90;;;;;;5027455;28;20536;-74
2022/04/15 12:47:41;;;;;;;0.70;0.30;;;20.60;99.90;;;;;;5025343;28;20520;-76
2022/04/15 12:50:23;;;;;;;0.63;0.10;;;20.60;99.90;;;;;;5028552;28;20479;-75
2022/04/15 12:52:52;;;;;;;0.70;0.20;;;20.60;99.90;;;;;;5020616;28;20435;-74
2022/04/15 12:55:28;;;;;;;0.70;0.20;;;20.60;99.90;;;;;;5014313;28;20446;-75
2022/04/15 12:57:58;;;;;;;0.70;0.20;;;20.60;99.90;;;;;;5022318;28;20458;-76
2022/04/15 13:00:30;;;;;;;0.60;0.10;;;20.60;99.90;;;;;;5031962;28;20469;-74
2022/04/15 13:02:59;;;;;;;0.60;0.20;;;20.70;99.90;;;;;;5032342;28;20458;-74
2022/04/15 13:05:27;;;;;;;0.70;0.20;;;20.30;99.90;;;;;;5030724;28;20484;-73
2022/04/15 13:07:55;;;;;;;0.70;0.30;;;20.20;99.90;;;;;;5025162;28;20761;-79
2022/04/15 13:10:25;;;;;;;0.60;0.10;;;20.50;99.90;;;;;;5033521;28;20538;-76